Date,TemperatureHighF,TemperatureAvgF,TemperatureLowF,DewpointHighF,DewpointAvgF,DewpointLowF,HumidityHigh,HumidityAvg,HumidityLow,PressureMaxIn,PressureMinIn,WindSpeedMaxMPH,WindSpeedAvgMPH,GustSpeedMaxMPH,PrecipitationSumIn
2013-1-1,45.0,33.6,27.0,32.0,28.2,16.0,100,84,31,0.00,40.00,17,4,23,0.00
2013-1-2,45.0,40.7,37.0,25.0,19.8,14.0,52,43,29,0.00,40.00,19,16,24,0.00
2013-1-3,40.0,35.8,32.0,34.0,24.6,16.0,100,66,39,0.00,40.00,20,13,27,0.00
2013-1-4,46.0,39.9,35.0,44.0,39.5,35.0,100,98,73,0.00,40.00,20,9,26,0.01
2013-1-5,45.0,39.6,35.0,38.0,35.1,30.0,100,85,61,0.00,40.00,19,17,24,0.01
2013-1-6,39.0,37.6,37.0,39.0,37.6,37.0,100,100,100,0.00,40.00,18,14,24,0.06
2013-1-7,45.0,41.2,37.0,45.0,41.2,37.0,100,100,100,0.00,40.00,18,14,24,0.19
2013-1-8,47.0,43.0,39.0,47.0,43.0,39.0,100,100,100,0.00,40.00,19,16,24,0.35
2013-1-9,45.0,36.6,32.0,45.0,36.6,32.0,100,100,100,0.00,40.00,18,12,24,0.38
2013-1-10,38.0,31.8,32.0,38.0,26.9,-99.9,100,95,100,0.00,40.00,0,0,0,0.05
2013-1-11,32.0,26.2,22.0,32.0,25.9,22.0,100,98,96,0.00,40.00,0,0,3,0.00
2013-1-12,33.0,24.3,22.0,31.0,23.5,21.0,98,97,93,0.00,40.00,0,0,2,0.00
2013-1-13,32.0,24.0,21.0,30.0,23.3,20.0,98,96,92,0.00,40.00,0,0,2,0.00
2013-1-28,34.0,32.4,32.0,34.0,32.4,32.0,100,100,100,0.00,40.00,19,16,23,0.03
2013-1-29,38.0,35.8,33.0,38.0,35.8,33.0,100,100,100,0.00,40.00,19,17,24,0.01
2013-1-30,41.0,39.4,36.0,41.0,39.4,36.0,100,100,100,0.00,40.00,19,18,24,0.05
2013-1-31,40.0,37.9,36.0,40.0,37.9,36.0,100,100,100,0.00,40.00,18,15,24,0.03
2013-2-1,40.0,37.6,35.0,40.0,37.6,35.0,100,100,100,0.00,40.00,10,6,18,0.06
2013-2-2,49.0,44.6,37.0,39.0,30.7,22.0,100,61,36,0.00,40.00,20,14,24,0.01
2013-2-3,39.0,36.1,34.0,38.0,36.0,34.0,100,100,94,0.00,40.00,14,6,20,0.08
2013-2-4,41.0,36.4,34.0,41.0,36.2,34.0,100,99,87,0.00,40.00,17,10,24,0.07
2013-2-5,38.0,35.7,33.0,38.0,35.7,33.0,100,100,100,0.00,40.00,19,14,24,0.27
2013-2-6,37.0,34.8,33.0,37.0,34.8,33.0,100,100,100,0.00,40.00,18,15,24,0.50
2013-2-7,34.0,32.3,31.0,34.0,32.0,30.0,100,99,90,0.00,40.00,18,6,24,0.09
2013-2-8,33.0,31.6,30.0,33.0,31.6,30.0,100,100,100,0.00,40.00,13,8,22,0.01
2013-2-9,36.0,33.6,32.0,36.0,33.6,32.0,100,100,98,0.00,40.00,13,7,18,0.04
2013-2-10,34.0,32.9,32.0,34.0,32.9,32.0,100,100,100,0.00,40.00,11,8,20,0.02
2013-2-11,39.0,35.0,32.0,39.0,35.0,32.0,100,100,100,0.00,40.00,13,9,22,0.01
2013-2-12,40.0,38.3,36.0,40.0,38.3,36.0,100,100,100,0.00,40.00,19,15,24,0.05
2013-2-13,39.0,36.3,33.0,39.0,36.3,33.0,100,100,100,0.00,40.00,18,12,24,0.06
2013-2-14,40.0,36.8,33.0,40.0,36.6,32.0,100,100,95,0.00,40.00,18,10,23,0.01
2013-2-15,53.0,42.6,36.0,43.0,38.8,36.0,100,88,62,0.00,40.00,17,9,22,0.02
2013-2-16,45.0,36.3,32.0,42.0,36.1,32.0,100,99,88,0.00,40.00,19,16,24,0.03
2013-2-17,35.0,31.7,30.0,33.0,31.5,30.0,100,99,92,0.00,40.00,19,10,23,0.02
2013-2-18,33.0,31.8,31.0,33.0,31.6,30.0,100,99,92,0.00,40.00,19,10,24,0.01
2013-2-19,42.0,33.7,32.0,36.0,32.6,31.0,100,96,69,0.00,40.00,17,9,24,0.00
2013-2-20,34.0,32.7,32.0,33.0,32.1,28.0,100,98,79,0.00,40.00,16,8,23,0.00
2013-2-21,34.0,32.8,31.0,34.0,32.8,31.0,100,100,100,0.00,40.00,18,4,24,0.01
2013-2-22,35.0,33.2,30.0,35.0,33.2,30.0,100,100,100,0.00,40.00,19,14,111,0.03
2013-2-23,33.0,31.5,30.0,33.0,31.5,30.0,100,100,100,0.00,40.00,20,16,24,0.01
2013-2-24,35.0,32.7,31.0,34.0,32.0,30.0,100,98,86,0.00,40.00,19,16,24,0.01
2013-2-25,33.0,32.3,31.0,33.0,32.2,31.0,100,100,92,0.00,40.00,19,15,24,0.00
2013-2-26,33.0,31.7,30.0,33.0,31.7,30.0,100,100,100,0.00,40.00,18,12,24,0.00
2013-2-27,39.0,35.5,32.0,39.0,35.5,32.0,100,100,100,0.00,40.00,18,12,23,0.00
2013-2-28,45.0,41.0,36.0,45.0,41.0,36.0,100,100,100,0.00,40.00,19,15,24,0.00
2013-3-1,46.0,43.9,42.0,46.0,43.9,42.0,100,100,100,0.00,40.00,18,14,24,0.00
2013-3-2,43.0,40.0,32.0,43.0,39.8,32.0,100,99,95,0.00,40.00,19,13,23,0.00
2013-3-3,38.0,32.9,30.0,33.0,30.8,29.0,100,92,74,0.00,40.00,17,10,23,0.00
2013-3-4,45.0,35.7,29.0,32.0,25.3,19.0,100,69,40,0.00,40.00,17,10,23,0.00
2013-3-5,38.0,34.8,32.0,35.0,30.0,20.0,100,85,49,0.00,40.00,20,15,24,0.00
2013-3-6,34.0,33.3,32.0,34.0,33.3,32.0,100,100,100,0.00,40.00,19,8,24,0.00
2013-3-7,45.0,35.9,32.0,36.0,33.7,32.0,100,93,61,0.00,40.00,20,11,24,0.00
2013-3-8,42.0,35.3,32.0,40.0,34.8,32.0,100,98,85,0.00,40.00,10,5,18,0.00
2013-3-9,51.0,40.8,33.0,40.0,31.4,22.0,100,71,45,0.00,40.00,11,5,16,0.00
2013-3-10,40.0,36.9,34.0,39.0,36.0,27.0,100,97,66,0.00,40.00,15,6,23,0.00
2013-3-11,42.0,39.2,36.0,42.0,39.2,36.0,100,100,100,0.00,40.00,19,7,23,0.00
2013-3-12,44.0,42.7,41.0,44.0,42.7,41.0,100,100,100,0.00,40.00,19,16,23,0.00
2013-3-13,48.0,42.9,40.0,46.0,42.4,40.0,100,98,82,0.00,40.00,18,15,23,0.00
2013-3-14,49.0,43.0,39.0,45.0,41.9,39.0,100,96,77,0.00,40.00,18,12,23,0.07
2013-3-15,47.0,43.2,40.0,46.0,43.0,40.0,100,99,91,0.00,40.00,18,14,23,0.07
2013-3-16,40.0,36.3,31.0,40.0,36.3,31.0,100,100,100,0.00,40.00,19,14,24,0.01
2013-3-17,33.0,30.9,29.0,33.0,30.9,29.0,100,100,100,0.00,40.00,19,16,24,0.01
2013-3-18,40.0,33.0,30.0,35.0,31.5,28.0,100,95,76,0.00,40.00,17,11,23,0.01
2013-3-19,40.0,36.2,32.0,39.0,30.2,18.0,100,81,45,0.00,40.00,19,15,24,0.00
2013-3-20,44.0,36.3,30.0,44.0,36.3,30.0,100,100,100,0.00,40.00,19,14,24,0.00
2013-3-21,33.0,30.4,28.0,33.0,30.4,28.0,100,100,100,0.00,40.00,18,15,33,0.00
2013-3-22,33.0,29.6,27.0,33.0,29.6,27.0,100,100,99,0.00,40.00,18,14,23,0.00
2013-3-23,37.0,31.2,28.0,33.0,28.7,24.0,100,91,73,0.00,40.00,4,2,11,0.00
2013-3-24,45.0,36.9,32.0,31.0,26.8,23.0,90,67,56,0.00,40.00,12,6,18,0.00
2013-3-25,53.0,43.0,37.0,35.0,30.4,25.0,72,61,49,0.00,40.00,7,4,14,0.00
2013-3-26,48.0,43.5,40.0,40.0,36.0,30.0,93,75,60,0.00,40.00,6,3,11,0.00
2013-3-27,56.0,43.5,39.0,44.0,40.9,37.0,100,92,62,0.00,40.00,8,5,15,0.02
2013-3-28,52.0,46.9,43.0,44.0,41.6,39.0,100,83,61,0.00,40.00,8,5,20,0.33
2013-3-29,55.0,46.6,41.0,46.0,42.0,36.0,100,85,66,0.00,40.00,6,4,14,0.03
2013-3-30,61.0,49.2,39.0,46.0,40.0,-99.9,100,76,56,0.00,40.00,10,6,15,0.01
2013-3-31,69.0,56.1,46.0,46.0,41.7,34.0,83,61,37,0.00,40.00,14,6,21,0.00
2013-4-1,54.0,47.4,41.0,48.0,43.5,41.0,100,87,66,0.00,40.00,14,8,22,0.04
2013-4-2,48.0,42.4,40.0,47.0,42.4,40.0,100,100,95,0.00,40.00,10,6,23,0.06
2013-4-3,56.0,47.0,39.0,46.0,42.1,39.0,100,84,55,0.00,40.00,10,6,17,0.01
2013-4-4,52.0,47.9,44.0,48.0,44.4,40.0,100,89,65,0.00,40.00,17,13,23,0.22
2013-4-5,45.0,42.7,39.0,45.0,42.7,39.0,100,100,100,0.00,40.00,19,15,24,1.63
2013-4-6,43.0,38.8,35.0,43.0,38.7,35.0,100,100,92,0.00,40.00,18,14,24,1.07
2013-4-7,39.0,34.9,32.0,39.0,34.9,32.0,100,100,100,0.00,40.00,19,16,24,0.86
2013-4-8,41.0,36.4,32.0,39.0,35.7,32.0,100,97,85,0.00,40.00,18,14,23,0.06
2013-4-9,45.0,38.9,34.0,41.0,37.0,34.0,100,93,71,0.00,40.00,18,9,23,0.00
2013-4-10,44.0,40.4,35.0,44.0,39.8,35.0,100,98,90,0.00,40.00,19,17,23,0.40
2013-4-11,46.0,38.0,33.0,40.0,34.7,27.0,100,89,60,0.00,40.00,17,10,23,0.06
2013-4-12,38.0,34.7,32.0,38.0,32.8,29.0,100,92,78,0.00,40.00,18,10,24,0.16
2013-4-13,34.0,31.8,29.0,34.0,31.8,29.0,100,100,100,0.00,40.00,19,16,24,0.16
2013-4-14,43.0,34.1,32.0,37.0,32.9,32.0,100,96,69,0.00,40.00,17,11,23,0.07
2013-4-15,45.0,36.6,31.0,36.0,32.5,30.0,100,86,59,0.00,40.00,16,8,23,0.01
2013-4-16,49.0,39.5,33.0,37.0,33.0,28.0,100,79,51,0.00,40.00,14,7,22,0.08
2013-4-17,49.0,40.5,35.0,39.0,32.9,28.0,98,75,60,0.00,40.00,18,8,23,0.08
2013-4-18,42.0,37.4,32.0,42.0,37.1,32.0,100,99,91,0.00,40.00,19,10,24,0.07
2013-4-19,44.0,41.5,39.0,44.0,41.5,39.0,100,100,100,0.00,40.00,19,16,24,0.49
2013-4-20,42.0,39.0,37.0,41.0,38.8,37.0,100,99,91,0.00,40.00,19,14,23,0.02
2013-4-21,42.0,37.8,35.0,42.0,37.3,34.0,100,98,81,0.00,40.00,17,11,23,0.01
2013-4-22,54.0,41.2,32.0,39.0,32.9,23.0,100,77,44,0.00,40.00,14,8,23,0.01
2013-4-23,59.0,46.2,38.0,31.0,24.5,20.0,72,44,29,0.00,40.00,10,8,22,0.00
2013-4-24,64.0,50.6,39.0,36.0,28.7,22.0,71,45,26,0.00,40.00,15,8,23,0.00
2013-4-25,68.0,55.2,46.0,46.0,35.3,27.0,71,48,36,0.00,40.00,11,5,20,0.00
2013-4-26,67.0,59.3,49.0,48.0,34.9,15.0,53,41,18,0.00,40.00,7,4,12,0.00
2013-4-27,54.0,45.3,41.0,44.0,34.9,15.0,100,73,21,0.00,40.00,17,13,24,0.00
2013-4-28,47.0,41.8,39.0,42.0,40.2,37.0,100,95,72,0.00,40.00,18,14,23,0.05
2013-4-29,43.0,37.9,32.0,42.0,34.9,29.0,100,90,59,0.00,40.00,19,16,24,0.23
2013-4-30,48.0,38.4,32.0,33.0,30.3,27.0,100,74,47,0.00,40.00,18,12,23,0.01
2013-5-1,59.0,43.5,33.0,35.0,28.1,20.0,85,58,29,0.00,40.00,12,6,19,0.01
2013-5-2,67.0,53.0,43.0,39.0,30.4,21.0,60,43,20,0.00,40.00,16,8,23,0.00
2013-5-3,63.0,50.8,41.0,42.0,34.8,26.0,79,56,32,0.00,40.00,14,11,24,0.00
2013-5-4,71.0,58.5,47.0,44.0,38.4,30.0,76,50,28,0.00,40.00,13,9,23,0.00
2013-5-5,77.0,63.5,52.0,38.0,34.3,32.0,53,35,21,0.00,40.00,16,9,23,0.00
2013-5-6,76.0,69.0,63.0,50.0,37.6,25.0,49,33,21,0.00,40.00,11,6,17,0.00
2013-5-7,66.0,56.0,42.0,52.0,45.8,36.0,100,71,40,0.00,40.00,8,4,13,0.00
2013-5-8,63.0,50.8,42.0,52.0,46.7,42.0,100,87,61,0.00,40.00,9,4,15,0.00
2013-5-9,71.0,58.9,48.0,52.0,48.1,41.0,95,70,39,0.00,40.00,8,5,19,0.00
2013-5-10,76.0,65.4,53.0,54.0,48.7,43.0,76,57,31,0.00,40.00,7,4,16,0.00
2013-5-11,75.0,63.0,57.0,55.0,46.2,-99.9,82,58,38,0.00,40.00,18,8,22,0.00
2013-5-12,60.0,54.3,49.0,54.0,50.2,47.0,100,86,68,0.00,40.00,18,10,23,0.01
2013-5-13,50.0,46.2,38.0,50.0,45.6,36.0,100,97,88,0.00,40.00,19,13,24,0.43
2013-5-14,53.0,44.6,37.0,42.0,38.1,34.0,100,79,55,0.00,40.00,11,5,23,0.04
2013-5-15,46.0,45.1,42.0,46.0,42.2,39.0,100,90,75,0.00,40.00,14,6,21,0.12
2013-5-16,58.0,43.2,43.0,49.0,25.3,-99.9,100,96,64,0.00,40.00,20,10,23,0.20
2013-5-17,48.0,43.3,40.0,47.0,38.6,-99.9,100,96,76,0.00,40.00,19,12,24,0.15
2013-5-18,48.0,43.0,40.0,46.0,42.6,40.0,100,99,92,0.00,40.00,13,7,22,0.06
2013-5-19,54.0,46.3,41.0,46.0,43.2,41.0,100,90,65,0.00,40.00,12,8,20,0.02
2013-5-20,67.0,50.4,42.0,49.0,44.2,41.0,100,81,53,0.00,40.00,11,5,19,0.01
2013-5-21,42.0,38.1,36.0,42.0,38.0,36.0,100,100,92,0.00,40.00,18,13,23,0.34
2013-5-22,39.0,36.0,33.0,39.0,36.0,33.0,100,100,100,0.00,40.00,18,10,24,0.68
2013-5-23,41.0,38.6,35.0,41.0,38.6,35.0,100,100,100,0.00,40.00,18,12,23,1.08
2013-5-24,43.0,40.5,38.0,43.0,40.5,38.0,100,100,100,0.00,40.00,18,11,23,0.50
2013-5-25,50.0,43.0,39.0,48.0,42.3,38.0,100,98,88,0.00,40.00,12,6,19,0.01
2013-5-26,50.0,46.1,43.0,48.0,45.7,43.0,100,99,92,0.00,40.00,14,9,23,0.39
2013-5-27,49.0,44.8,42.0,49.0,44.8,42.0,100,100,100,0.00,40.00,19,16,23,0.37
2013-5-28,48.0,44.1,42.0,48.0,43.8,41.0,100,99,91,0.00,40.00,14,11,23,0.29
2013-5-29,45.0,43.0,40.0,45.0,42.8,40.0,100,99,93,0.00,40.00,18,12,23,0.88
2013-5-30,48.0,42.0,39.0,45.0,41.6,39.0,100,98,87,0.00,40.00,17,12,23,0.19
2013-5-31,57.0,47.5,40.0,44.0,41.6,39.0,100,82,59,0.00,40.00,11,5,21,0.03
2013-6-1,63.0,53.0,47.0,49.0,43.7,38.0,94,71,56,0.00,40.00,10,5,18,0.00
2013-6-2,60.0,50.4,45.0,51.0,47.2,44.0,100,89,68,0.00,40.00,12,8,22,0.00
2013-6-3,66.0,52.3,42.0,51.0,44.7,21.0,100,77,31,0.00,40.00,11,5,18,0.00
2013-6-4,72.0,58.4,46.0,49.0,45.5,13.0,97,66,21,0.00,40.00,11,7,20,0.00
2013-6-5,73.0,62.4,55.0,57.0,49.2,41.0,79,62,52,0.00,40.00,12,5,19,0.00
2013-6-6,71.0,59.4,50.0,55.0,47.1,25.0,96,67,28,0.00,40.00,16,8,22,0.00
2013-6-7,61.0,54.6,48.0,53.0,32.1,9.0,85,48,16,0.00,40.00,14,8,22,0.00
2013-6-8,66.0,53.3,43.0,49.0,42.2,32.0,92,67,54,0.00,40.00,12,5,18,0.00
2013-6-9,61.0,50.3,41.0,45.0,41.6,39.0,100,74,51,0.00,40.00,16,8,22,0.00
2013-6-10,53.0,46.6,39.0,45.0,41.0,35.0,92,81,69,0.00,40.00,17,8,23,0.00
2013-6-11,53.0,44.5,40.0,43.0,40.9,39.0,100,88,66,0.00,40.00,18,13,23,0.00
2013-6-12,48.0,43.9,41.0,46.0,42.4,39.0,100,95,83,0.00,40.00,18,9,23,0.04
2013-6-13,52.0,45.7,42.0,48.0,44.3,42.0,100,95,82,0.00,40.00,18,11,23,0.38
2013-6-14,55.0,47.2,42.0,49.0,45.2,41.0,100,93,81,0.00,40.00,17,6,23,0.01
2013-6-15,71.0,56.1,44.0,53.0,47.3,44.0,100,76,40,0.00,40.00,10,6,17,0.00
2013-6-16,61.0,54.3,47.0,53.0,49.2,46.0,100,84,62,0.00,40.00,11,4,21,0.00
2013-6-17,63.0,51.3,47.0,52.0,48.3,45.0,100,90,55,0.00,40.00,16,7,23,0.25
2013-6-18,56.0,48.0,44.0,48.0,45.4,43.0,100,91,67,0.00,40.00,16,11,22,0.25
2013-6-19,55.0,47.5,43.0,46.0,44.2,43.0,100,89,67,0.00,40.00,19,12,23,0.01
2013-6-20,48.0,45.7,44.0,47.0,45.7,44.0,100,100,98,0.00,40.00,18,14,23,0.00
2013-6-22,68.0,60.2,49.0,53.0,48.2,45.0,93,67,47,0.00,40.00,6,4,15,0.13
2013-6-23,60.0,56.2,52.0,56.0,52.5,48.0,100,88,71,0.00,40.00,17,6,22,0.08
2013-6-24,54.0,49.9,46.0,54.0,49.9,46.0,100,100,100,0.00,40.00,18,11,23,0.65
2013-6-25,55.0,50.4,48.0,54.0,50.2,48.0,100,99,96,0.00,40.00,17,14,23,0.41
2013-6-26,57.0,52.8,49.0,56.0,52.3,48.0,100,98,91,0.00,40.00,16,11,22,0.53
2013-6-27,60.0,56.5,54.0,59.0,56.0,53.0,100,98,92,0.00,40.00,15,8,22,0.31
2013-6-28,75.0,65.8,57.0,62.0,57.3,51.0,100,76,57,0.00,40.00,12,7,22,0.01
2013-6-29,78.0,67.9,60.0,61.0,54.6,47.0,80,63,44,0.00,40.00,12,4,17,0.00
2013-6-30,87.0,72.1,59.0,65.0,59.9,54.0,86,67,47,0.00,40.00,9,5,13,0.00
2013-7-1,80.0,70.4,64.0,65.0,58.8,53.0,76,67,58,0.00,40.00,13,7,21,0.00
2013-7-2,77.0,66.9,61.0,60.0,53.1,43.0,82,62,45,0.00,40.00,16,6,20,0.00
2013-7-3,72.0,61.4,53.0,55.0,46.6,35.0,70,58,46,0.00,40.00,17,8,22,0.00
2013-7-4,61.0,53.2,45.0,49.0,46.2,38.0,98,78,63,0.00,40.00,15,9,22,0.00
2013-7-5,67.0,52.3,45.0,54.0,48.5,44.0,100,88,63,0.00,40.00,15,7,19,0.00
2013-7-6,70.0,56.0,48.0,57.0,49.5,45.0,96,80,52,0.00,40.00,12,6,22,0.00
2013-7-7,66.0,58.8,52.0,58.0,52.3,42.0,91,79,66,0.00,40.00,11,6,17,0.00
2013-7-8,71.0,55.2,45.0,57.0,49.7,42.0,100,83,57,0.00,40.00,7,3,15,0.00
2013-7-9,78.0,65.1,55.0,56.0,52.8,40.0,94,68,42,0.00,40.00,11,8,22,0.00
2013-7-10,68.0,57.0,48.0,53.0,43.8,-99.9,82,66,45,0.00,40.00,13,6,22,0.00
2013-7-11,66.0,52.3,42.0,48.0,43.2,40.0,97,73,49,0.00,40.00,14,8,22,0.00
2013-7-12,59.0,51.2,44.0,50.0,44.7,39.0,94,79,64,0.00,40.00,11,5,18,0.00
2013-7-13,68.0,55.8,46.0,48.0,40.6,33.0,78,58,37,0.00,40.00,11,6,22,0.00
2013-7-14,76.0,61.2,51.0,49.0,42.7,28.0,74,53,30,0.00,40.00,13,9,22,0.00
2013-7-15,72.0,59.9,49.0,50.0,44.1,34.0,80,59,27,0.00,40.00,12,9,24,0.00
2013-7-16,76.0,69.9,64.0,54.0,46.7,40.0,57,44,29,0.00,40.00,12,6,22,0.00
2013-7-17,66.0,55.7,50.0,54.0,50.9,44.0,100,86,47,0.00,40.00,19,6,23,0.01
2013-7-18,70.0,56.1,47.0,57.0,52.2,47.0,100,88,63,0.00,40.00,10,5,16,0.01
2013-7-19,71.0,60.4,51.0,58.0,53.7,48.0,100,80,61,0.00,40.00,16,8,21,0.00
2013-7-20,69.0,60.5,52.0,58.0,50.0,-99.9,98,72,50,0.00,40.00,13,6,21,0.00
2013-7-21,70.0,60.3,52.0,59.0,51.5,43.0,89,73,59,0.00,40.00,8,5,14,0.00
2013-7-22,70.0,59.2,49.0,58.0,51.7,44.0,88,77,65,0.00,40.00,6,3,13,0.00
2013-7-23,80.0,64.2,54.0,59.0,54.7,47.0,100,74,42,0.00,40.00,12,8,21,0.00
2013-7-24,79.0,68.2,60.0,58.0,50.7,42.0,69,54,42,0.00,40.00,13,6,20,0.00
2013-7-25,79.0,67.5,59.0,52.0,46.4,24.0,71,48,23,0.00,40.00,13,6,17,0.00
2013-7-26,76.0,65.8,56.0,52.0,44.4,34.0,73,48,32,0.00,40.00,17,8,22,0.00
2013-7-27,67.0,56.6,49.0,53.0,46.3,33.0,84,69,45,0.00,40.00,13,8,21,0.00
2013-7-28,55.0,51.0,47.0,50.0,46.1,37.0,100,84,54,0.00,40.00,13,7,22,0.00
2013-7-29,70.0,54.3,46.0,56.0,50.0,46.0,100,87,55,0.00,40.00,8,4,14,0.00
2013-7-30,72.0,61.7,52.0,59.0,52.6,45.0,88,73,60,0.00,40.00,7,3,11,0.00
2013-7-31,70.0,60.8,52.0,58.0,52.5,45.0,100,76,51,0.00,40.00,9,3,17,0.02
2013-8-1,55.0,50.8,48.0,55.0,50.8,48.0,100,100,100,0.00,40.00,11,7,20,0.10
2013-8-2,56.0,50.9,48.0,55.0,50.9,48.0,100,100,98,0.00,40.00,19,9,23,0.07
2013-8-3,65.0,56.9,50.0,57.0,53.7,50.0,100,90,72,0.00,40.00,12,5,20,0.01
2013-8-4,78.0,61.5,53.0,61.0,55.9,53.0,100,85,51,0.00,40.00,11,7,20,0.01
2013-8-5,80.0,67.0,57.0,59.0,55.4,52.0,90,68,48,0.00,40.00,9,5,18,0.00
2013-8-6,79.0,71.7,60.0,56.0,52.0,31.0,78,51,30,0.00,40.00,8,4,15,0.00
2013-8-7,79.0,69.4,60.0,57.0,48.4,34.0,73,49,31,0.00,40.00,16,7,22,0.00
2013-8-8,72.0,61.3,54.0,59.0,54.0,50.0,94,78,62,0.00,40.00,14,8,22,0.00
2013-8-9,73.0,63.8,56.0,57.0,53.8,49.0,87,71,51,0.00,40.00,9,6,19,0.00
2013-8-10,71.0,61.7,55.0,60.0,55.4,49.0,100,81,60,0.00,40.00,11,5,17,0.01
2013-8-11,61.0,55.0,51.0,58.0,54.0,51.0,100,97,79,0.00,40.00,6,4,13,0.02
2013-8-12,67.0,56.2,50.0,55.0,52.0,49.0,100,87,60,0.00,40.00,12,4,17,0.01
2013-8-13,75.0,60.6,49.0,55.0,48.5,-99.9,99,69,42,0.00,40.00,5,3,11,0.00
2013-8-14,66.0,62.8,58.0,58.0,51.6,47.0,91,68,54,0.00,40.00,13,8,23,0.07
2013-8-15,61.0,54.9,57.0,61.0,47.2,-99.9,100,92,84,0.00,40.00,16,7,23,0.37
2013-8-16,71.0,60.3,56.0,61.0,53.9,-99.9,100,86,57,0.00,40.00,15,6,20,0.01
2013-8-17,66.0,57.8,54.0,58.0,51.9,-99.9,100,84,58,0.00,40.00,15,7,17,0.00
2013-8-18,69.0,59.4,51.0,57.0,53.5,48.0,100,82,61,0.00,40.00,10,5,19,0.00
2013-8-19,69.0,56.6,51.0,57.0,41.5,-99.9,100,73,53,0.00,40.00,13,7,22,0.00
2013-8-20,69.0,57.6,49.0,52.0,45.6,-99.9,100,69,47,0.00,40.00,16,9,23,0.00
2013-8-21,73.0,62.0,51.0,49.0,44.3,39.0,77,54,37,0.00,40.00,13,10,23,0.00
2013-8-22,74.0,64.6,58.0,56.0,51.2,47.0,71,62,48,0.00,40.00,11,6,19,0.00
2013-8-23,64.0,55.7,51.0,54.0,51.9,47.0,100,88,55,0.00,40.00,12,7,21,0.00
2013-8-24,63.0,54.7,50.0,56.0,50.2,-99.9,100,88,68,0.00,40.00,10,4,16,0.07
2013-8-25,66.0,54.5,49.0,57.0,50.0,43.0,98,85,63,0.00,40.00,11,4,14,0.01
2013-8-26,62.0,53.7,51.0,54.0,51.9,48.0,100,94,66,0.00,40.00,15,11,23,0.10
2013-8-27,58.0,54.3,52.0,58.0,54.3,52.0,100,100,100,0.00,40.00,16,11,23,0.24
2013-8-28,70.0,61.9,56.0,60.0,57.3,56.0,100,86,71,0.00,40.00,10,5,17,0.20
2013-8-29,62.0,58.9,56.0,62.0,58.4,55.0,100,99,91,0.00,40.00,15,10,23,1.04
2013-8-30,66.0,58.1,53.0,56.0,53.8,50.0,100,87,59,0.00,40.00,16,6,23,0.10
2013-8-31,77.0,62.5,52.0,59.0,52.9,-99.9,97,75,53,0.00,40.00,9,5,15,0.01
2013-9-1,70.0,61.4,55.0,56.0,52.1,47.0,93,72,56,0.00,40.00,14,7,22,0.00
2013-9-2,68.0,60.2,56.0,56.0,52.7,49.0,91,77,62,0.00,40.00,16,8,23,0.00
2013-9-3,68.0,59.0,53.0,60.0,53.6,48.0,100,83,62,0.00,40.00,13,6,18,0.21
2013-9-4,63.0,57.7,53.0,59.0,56.0,52.0,100,95,80,0.00,40.00,7,4,16,0.01
2013-9-5,58.0,55.8,54.0,58.0,55.7,54.0,100,100,98,0.00,40.00,17,8,23,0.61
2013-9-6,56.0,54.2,53.0,56.0,54.2,53.0,100,100,100,0.00,40.00,19,14,23,1.69
2013-9-7,68.0,57.0,52.0,60.0,53.6,-99.9,100,92,70,0.00,40.00,9,5,20,0.05
2013-9-8,74.0,62.0,54.0,60.0,57.1,54.0,100,86,56,0.00,40.00,10,7,21,0.00
2013-9-9,73.0,62.7,55.0,61.0,57.4,53.0,100,84,65,0.00,40.00,8,5,18,0.00
2013-9-10,72.0,63.0,54.0,60.0,57.2,54.0,100,83,62,0.00,40.00,10,7,21,0.00
2013-9-11,85.0,77.8,70.0,61.0,53.0,46.0,74,44,30,0.00,40.00,13,5,18,0.00
2013-9-12,83.0,70.2,64.0,65.0,59.8,54.0,88,71,42,0.00,40.00,8,4,11,0.00
2013-9-13,71.0,61.7,53.0,61.0,57.8,53.0,100,88,69,0.00,40.00,8,3,10,0.00
2013-9-14,72.0,59.4,53.0,64.0,54.8,-99.9,100,88,69,0.00,40.00,12,6,17,0.01
2013-9-15,59.0,55.6,52.0,58.0,55.1,52.0,100,98,90,0.00,40.00,11,7,22,0.11
2013-9-16,55.0,52.3,50.0,55.0,52.3,50.0,100,100,98,0.00,40.00,19,11,23,0.41
2013-9-17,58.0,50.8,48.0,50.0,45.8,39.0,100,84,67,0.00,40.00,19,11,23,0.02
2013-9-18,52.0,48.0,47.0,48.0,47.1,46.0,100,97,85,0.00,40.00,19,13,23,0.02
2013-9-19,67.0,58.3,49.0,48.0,43.9,38.0,98,62,41,0.00,40.00,16,11,23,0.00
2013-9-20,60.0,54.0,50.0,52.0,48.0,42.0,100,81,57,0.00,40.00,16,11,23,0.14
2013-9-21,58.0,50.2,48.0,52.0,47.8,-99.9,100,94,70,0.00,40.00,14,8,22,0.22
2013-9-22,50.0,47.9,46.0,50.0,47.9,46.0,100,100,100,0.00,40.00,17,14,23,0.75
2013-9-23,49.0,46.9,44.0,49.0,46.9,44.0,100,100,100,0.00,40.00,16,11,23,0.86
2013-9-25,47.0,45.0,43.0,47.0,44.8,42.0,100,99,98,0.00,40.00,9,7,16,0.00
2013-9-26,45.0,44.0,43.0,44.0,42.0,40.0,100,92,86,0.00,40.00,11,9,17,0.00
2013-9-30,44.0,42.7,41.0,44.0,42.6,41.0,100,99,96,0.00,40.00,17,16,23,0.16
2013-10-1,45.0,42.4,41.0,43.0,41.2,40.0,100,96,83,0.00,40.00,17,14,23,0.57
2013-10-2,42.0,39.9,38.0,42.0,39.8,38.0,100,100,94,0.00,40.00,17,12,23,0.38
2013-10-3,48.0,41.7,38.0,45.0,40.7,38.0,100,97,84,0.00,40.00,10,5,16,0.01
2013-10-4,58.0,48.7,39.0,41.0,37.3,33.0,100,68,44,0.00,40.00,14,9,22,0.00
2013-10-5,62.0,55.2,51.0,44.0,35.9,29.0,61,49,31,0.00,40.00,9,5,16,0.00
2013-10-6,61.0,55.3,46.0,47.0,40.0,33.0,86,58,40,0.00,40.00,18,13,23,0.00
2013-10-7,47.0,43.8,41.0,47.0,43.5,41.0,100,99,90,0.00,40.00,18,16,23,0.25
2013-10-8,47.0,41.3,38.0,43.0,39.7,35.0,100,95,74,0.00,40.00,19,13,23,0.16
2013-10-9,52.0,42.4,37.0,46.0,39.8,37.0,100,91,68,0.00,40.00,13,6,22,0.05
2013-10-10,45.0,42.8,41.0,45.0,41.3,32.0,100,95,64,0.00,40.00,15,8,22,0.03
2013-10-11,45.0,42.8,41.0,45.0,42.2,40.0,100,98,90,0.00,40.00,12,7,18,0.05
2013-10-12,47.0,40.9,38.0,42.0,37.9,-99.9,100,92,81,0.00,40.00,11,5,20,0.04
2013-10-13,50.0,43.0,39.0,44.0,41.4,39.0,100,95,75,0.00,40.00,8,6,18,0.01
2013-10-14,50.0,44.2,39.0,42.0,39.0,36.0,100,83,61,0.00,40.00,9,6,23,0.00
2013-10-15,63.0,51.1,44.0,42.0,39.3,33.0,92,66,43,0.00,40.00,13,4,19,0.00
2013-10-16,54.0,47.0,41.0,45.0,41.3,36.0,100,81,63,0.00,40.00,10,5,17,0.00
2013-10-17,61.0,51.1,45.0,44.0,39.5,36.0,90,66,43,0.00,40.00,12,4,18,0.00
2013-10-18,62.0,52.9,46.0,46.0,38.4,31.0,87,59,31,0.00,40.00,11,6,22,0.00
2013-10-19,65.0,53.8,49.0,45.0,38.0,-99.9,74,58,43,0.00,40.00,13,5,18,0.00
2013-10-20,71.0,56.2,48.0,42.0,34.9,28.0,76,48,27,0.00,40.00,12,6,17,0.00
2013-10-21,69.0,63.5,59.0,42.0,36.4,33.0,48,37,30,0.00,40.00,16,9,22,0.00
2013-10-22,72.0,66.2,60.0,40.0,36.1,31.0,45,33,28,0.00,40.00,14,7,19,0.00
2013-10-23,70.0,64.3,55.0,46.0,39.1,31.0,52,40,35,0.00,40.00,14,5,20,0.00
2013-10-24,64.0,58.3,54.0,39.0,37.1,35.0,53,45,36,0.00,40.00,10,6,14,0.00
2013-10-26,-200.0,0.0,200.0,-99.9,-99.9,-99.9,0,0,100,0.00,40.00,14,14,0,0.00
2013-10-28,49.0,42.7,38.0,38.0,29.8,-99.9,84,66,58,0.00,40.00,10,8,25,0.01
2013-10-29,52.0,43.6,38.0,33.0,29.0,24.0,69,57,41,0.00,40.00,16,8,21,0.01
2013-10-30,46.0,42.2,39.0,40.0,36.4,29.0,99,81,57,0.00,40.00,17,12,23,0.01
2013-10-31,48.0,43.4,40.0,48.0,43.2,39.0,100,99,95,0.00,40.00,32,18,41,0.04
2013-11-1,57.0,48.1,43.0,46.0,43.0,38.0,100,84,58,0.00,40.00,27,13,37,0.02
2013-11-2,44.0,39.2,35.0,44.0,37.6,-99.9,100,97,94,0.00,40.00,44,31,68,1.43
2013-11-3,41.0,36.1,34.0,38.0,34.5,32.0,99,94,86,0.00,40.00,28,21,45,0.09
2013-11-4,39.0,36.9,34.0,39.0,36.7,33.0,100,99,96,0.00,40.00,23,10,34,0.36
2013-11-5,43.0,40.9,38.0,43.0,40.9,38.0,100,100,100,0.00,40.00,30,16,40,0.71
2013-11-6,47.0,42.3,39.0,47.0,41.5,37.0,100,97,89,0.00,40.00,22,11,31,0.37
2013-11-7,47.0,42.1,38.0,47.0,42.1,38.0,100,100,100,0.00,40.00,31,20,57,1.59
2013-11-8,40.0,40.0,40.0,40.0,40.0,40.0,100,100,100,0.00,40.00,0,0,0,0.00
2013-11-9,41.0,41.0,41.0,35.0,35.0,35.0,80,80,80,0.00,40.00,0,0,0,0.00
2013-11-12,46.0,45.0,43.0,46.0,44.9,42.0,100,100,95,0.00,40.00,17,-105,22,0.03
2013-11-13,45.0,43.1,40.0,45.0,43.1,40.0,100,100,99,0.00,40.00,19,8,28,0.06
2013-11-14,41.0,38.4,36.0,41.0,38.4,36.0,100,100,100,0.00,40.00,15,10,22,0.07
2013-11-15,41.0,36.8,34.0,41.0,36.7,34.0,100,100,96,0.00,40.00,37,20,56,1.16
2013-11-16,37.0,34.6,33.0,37.0,32.9,-99.9,100,97,89,0.00,40.00,31,22,51,0.83
2013-11-17,42.0,38.9,35.0,42.0,38.9,35.0,100,100,100,0.00,40.00,19,14,31,1.63
2013-11-18,44.0,41.6,41.0,44.0,41.6,41.0,100,100,100,0.00,40.00,27,20,41,2.13
2013-11-19,45.0,35.6,27.0,45.0,35.0,21.0,100,97,77,0.00,40.00,23,14,35,1.64
2013-11-20,31.0,27.1,24.0,27.0,23.9,20.0,97,88,76,0.00,40.00,18,13,28,0.01
2013-11-21,33.0,27.1,22.0,23.0,20.1,12.0,93,76,47,0.00,40.00,17,11,24,0.00
2013-11-22,47.0,33.8,28.0,17.0,11.6,3.0,61,43,16,0.00,40.00,18,14,26,0.00
2013-11-23,53.0,49.1,47.0,15.0,11.5,-99.9,25,23,22,0.00,40.00,18,14,26,0.00
2013-11-24,54.0,48.7,45.0,18.0,15.7,11.0,34,27,20,0.00,40.00,22,15,26,0.00
2013-11-25,52.0,46.2,42.0,23.0,17.3,13.0,46,31,21,0.00,40.00,29,16,36,0.00
2013-11-26,47.0,43.2,40.0,38.0,24.2,17.0,82,48,31,0.00,40.00,29,22,35,0.00
2013-11-27,55.0,50.4,46.0,30.0,25.7,22.0,53,38,31,0.00,40.00,17,10,22,0.00
2013-11-28,56.0,50.2,47.0,31.0,25.3,22.0,49,38,30,0.00,40.00,12,6,16,0.00
2013-11-29,48.0,42.3,38.0,43.0,37.2,27.0,100,85,47,0.00,40.00,13,7,19,0.01
2013-11-30,40.0,38.3,38.0,40.0,36.5,-99.9,100,96,81,0.00,40.00,24,20,30,0.21
2013-12-1,46.0,43.5,37.0,46.0,43.5,37.0,100,100,100,0.00,40.00,41,32,67,3.19
2013-12-2,34.0,29.9,27.0,34.0,29.6,27.0,100,98,97,0.00,40.00,39,19,59,0.62
2013-12-3,29.0,25.1,21.0,28.0,24.0,19.0,98,95,92,0.00,40.00,15,8,21,0.01
2013-12-4,28.0,23.0,20.0,21.0,18.8,16.0,94,84,73,0.00,40.00,11,5,15,0.01
2013-12-5,24.0,20.6,18.0,19.0,14.5,7.0,94,78,57,0.00,40.00,22,9,30,0.01
2013-12-6,19.0,16.4,12.0,16.0,12.3,5.0,91,84,62,0.00,40.00,20,10,30,0.00
2013-12-7,20.0,12.5,8.0,5.0,0.6,-99.9,73,61,50,0.00,40.00,11,7,23,0.00
2013-12-8,23.0,18.5,13.0,14.0,5.8,-3.0,74,58,42,0.00,40.00,10,6,14,0.00
2013-12-9,29.0,26.1,22.0,29.0,22.2,9.0,98,86,54,0.00,40.00,17,11,21,0.00
2013-12-10,32.0,30.2,28.0,32.0,16.7,-99.9,100,89,98,0.00,40.00,20,9,25,0.01
2013-12-11,39.0,34.2,32.0,32.0,18.3,-99.9,99,67,61,0.00,40.00,28,19,35,0.03
2013-12-12,38.0,32.2,28.0,32.0,27.7,25.0,100,84,64,0.00,40.00,29,22,38,0.07
2013-12-13,39.0,37.3,34.0,39.0,37.3,34.0,100,100,100,0.00,40.00,22,15,27,0.28
2013-12-14,39.0,37.4,37.0,39.0,36.2,-99.9,100,100,100,0.00,40.00,28,19,34,0.03
2013-12-15,42.0,39.3,36.0,42.0,39.3,36.0,100,100,100,0.00,40.00,26,16,31,0.10
2013-12-16,52.0,38.7,34.0,38.0,33.7,18.0,100,86,26,0.00,40.00,12,8,15,0.01
2013-12-17,50.0,44.6,38.0,41.0,30.9,16.0,100,65,26,0.00,40.00,17,12,25,0.02
2013-12-18,37.0,32.8,27.0,37.0,32.1,24.0,100,97,88,0.00,40.00,18,12,28,0.04
2013-12-19,28.0,26.4,23.0,28.0,20.9,10.0,99,81,48,0.00,40.00,13,8,24,0.01
2013-12-20,39.0,31.5,25.0,39.0,29.0,16.0,100,91,65,0.00,40.00,31,12,45,0.27
2013-12-21,39.0,36.9,36.0,39.0,35.8,-99.9,100,99,100,0.00,40.00,19,2,32,0.33
2013-12-22,42.0,40.1,38.0,42.0,40.1,38.0,100,100,100,0.00,40.00,27,16,40,0.17
2013-12-23,42.0,38.5,33.0,42.0,38.5,33.0,100,100,99,0.00,40.00,28,17,38,0.58
2013-12-24,38.0,33.4,31.0,36.0,32.3,31.0,100,96,86,0.00,40.00,17,6,26,0.04
2013-12-25,52.0,38.8,32.0,38.0,22.9,2.0,99,63,16,0.00,40.00,11,6,15,0.00
2013-12-26,56.0,48.2,43.0,42.0,39.5,32.0,89,73,51,0.00,40.00,15,4,18,0.00
2013-12-27,47.0,42.0,34.0,42.0,37.0,33.0,100,83,62,0.00,40.00,21,13,34,0.01
2013-12-28,38.0,33.4,32.0,35.0,31.8,-99.9,100,97,88,0.00,40.00,11,4,16,0.01
2013-12-29,46.0,39.9,33.0,34.0,27.6,21.0,100,63,44,0.00,40.00,9,2,11,0.01
2013-12-30,51.0,43.9,38.0,39.0,33.6,23.0,88,68,47,0.00,40.00,25,12,33,0.00
2013-12-31,40.0,37.9,35.0,40.0,35.6,30.0,100,92,68,0.00,40.00,22,12,35,0.02
2014-1-1,49.0,42.5,36.0,41.0,33.9,17.0,100,75,30,0.00,40.00,10,6,14,0.02
2014-1-2,47.0,40.9,36.0,39.0,34.1,27.0,100,78,46,0.00,40.00,27,22,37,0.27